createdAt,value
2022-10-03T00:00:50.163Z,1012.36
2022-10-03T00:01:50.183Z,1012.34
2022-10-03T00:02:50.262Z,1012.36
2022-10-03T00:03:50.205Z,1012.32
2022-10-03T00:04:50.217Z,1012.34
2022-10-03T00:05:50.232Z,1012.35
2022-10-03T00:06:50.248Z,1012.31
2022-10-03T00:07:50.262Z,1012.36
2022-10-03T00:08:50.277Z,1012.39
2022-10-03T00:09:50.289Z,1012.40
2022-10-03T00:10:50.304Z,1012.41
2022-10-03T00:11:50.320Z,1012.42
2022-10-03T00:12:50.332Z,1012.40
2022-10-03T00:13:50.346Z,1012.48
2022-10-03T00:14:50.360Z,1012.40
2022-10-03T00:15:50.407Z,1012.44
2022-10-03T00:16:50.390Z,1012.44
2022-10-03T00:17:50.404Z,1012.44
2022-10-03T00:18:50.416Z,1012.48
2022-10-03T00:19:50.431Z,1012.45
2022-10-03T00:20:50.444Z,1012.43
2022-10-03T00:21:50.457Z,1012.42
2022-10-03T00:22:50.475Z,1012.47
2022-10-03T00:23:50.490Z,1012.50
2022-10-03T00:24:50.501Z,1012.50
2022-10-03T00:25:50.516Z,1012.52
2022-10-03T00:26:50.532Z,1012.51
2022-10-03T00:27:50.601Z,1012.51
2022-10-03T00:28:50.557Z,1012.53
2022-10-03T00:29:50.574Z,1012.53
2022-10-03T00:30:50.587Z,1012.58
2022-10-03T00:31:50.653Z,1012.54
2022-10-03T00:32:50.621Z,1012.58
2022-10-03T00:33:50.639Z,1012.54
2022-10-03T00:34:50.653Z,1012.57
2022-10-03T00:35:50.660Z,1012.58
2022-10-03T00:36:50.685Z,1012.56
2022-10-03T00:37:50.702Z,1012.57
2022-10-03T00:38:50.722Z,1012.57
2022-10-03T00:39:50.717Z,1012.60
2022-10-03T00:40:50.731Z,1012.62
2022-10-03T00:41:50.746Z,1012.60
2022-10-03T00:42:50.759Z,1012.67
2022-10-03T00:43:50.773Z,1012.68
2022-10-03T00:44:50.789Z,1012.66
2022-10-03T00:45:50.809Z,1012.66
2022-10-03T00:46:50.882Z,1012.69
2022-10-03T00:47:50.831Z,1012.73
2022-10-03T00:48:50.845Z,1012.62
2022-10-03T00:49:50.860Z,1012.69
2022-10-03T00:50:50.876Z,1012.68
2022-10-03T00:51:50.891Z,1012.70
2022-10-03T00:52:50.905Z,1012.73
2022-10-03T00:53:50.919Z,1012.76
2022-10-03T00:54:50.933Z,1012.69
2022-10-03T00:55:50.950Z,1012.72
2022-10-03T00:56:50.963Z,1012.68
2022-10-03T00:57:50.976Z,1012.70
2022-10-03T00:58:50.994Z,1012.71
2022-10-03T00:59:51.007Z,1012.71
2022-10-03T01:00:51.123Z,1012.68
2022-10-03T01:01:51.071Z,1012.72
2022-10-03T01:02:51.052Z,1012.72
2022-10-03T01:03:51.066Z,1012.75
2022-10-03T01:04:51.079Z,1012.72
2022-10-03T01:05:51.097Z,1012.73
2022-10-03T01:06:51.107Z,1012.77
2022-10-03T01:07:51.124Z,1012.80
2022-10-03T01:08:51.138Z,1012.74
2022-10-03T01:09:51.154Z,1012.75
2022-10-03T01:10:51.170Z,1012.71
2022-10-03T01:11:51.184Z,1012.73
2022-10-03T01:12:51.200Z,1012.74
2022-10-03T01:13:51.213Z,1012.68
2022-10-03T01:14:51.228Z,1012.73
2022-10-03T01:15:51.289Z,1012.76
2022-10-03T01:16:51.257Z,1012.75
2022-10-03T01:17:51.272Z,1012.77
2022-10-03T01:18:51.287Z,1012.74
2022-10-03T01:19:51.301Z,1012.77
2022-10-03T01:20:51.316Z,1012.80
2022-10-03T01:21:51.332Z,1012.80
2022-10-03T01:22:51.346Z,1012.84
2022-10-03T01:23:51.360Z,1012.90
2022-10-03T01:24:51.375Z,1012.85
2022-10-03T01:25:51.388Z,1012.93
2022-10-03T01:26:51.404Z,1012.93
2022-10-03T01:27:51.436Z,1012.99
2022-10-03T01:28:51.435Z,1012.87
2022-10-03T01:29:51.450Z,1012.94
2022-10-03T01:30:51.540Z,1012.88
2022-10-03T01:31:51.554Z,1012.91
2022-10-03T01:32:51.493Z,1012.95
2022-10-03T01:33:51.507Z,1012.89
2022-10-03T01:34:51.521Z,1012.97
2022-10-03T01:35:51.537Z,1013.00
2022-10-03T01:36:51.554Z,1012.95
2022-10-03T01:37:51.567Z,1012.90
2022-10-03T01:38:51.581Z,1012.93
2022-10-03T01:39:51.596Z,1012.94
2022-10-03T01:40:51.610Z,1012.97
2022-10-03T01:41:51.627Z,1012.99
2022-10-03T01:42:51.641Z,1012.93
2022-10-03T01:43:51.657Z,1013.00
2022-10-03T01:44:51.669Z,1013.06
2022-10-03T01:45:51.685Z,1013.03
2022-10-03T01:46:51.742Z,1013.00
2022-10-03T01:47:51.839Z,1013.06
2022-10-03T01:48:51.728Z,1013.03
2022-10-03T01:49:51.742Z,1013.05
2022-10-03T01:50:51.759Z,1013.11
2022-10-03T01:51:51.773Z,1013.00
2022-10-03T01:52:51.787Z,1013.07
2022-10-03T01:53:51.804Z,1013.03
2022-10-03T01:54:51.820Z,1013.08
2022-10-03T01:55:51.834Z,1013.01
2022-10-03T01:56:51.847Z,1013.03
2022-10-03T01:57:51.861Z,1013.00
2022-10-03T01:58:51.876Z,1013.04
2022-10-03T01:59:51.895Z,1013.02
2022-10-03T02:00:51.933Z,1013.01
2022-10-03T02:01:51.977Z,1013.04
2022-10-03T02:02:51.932Z,1012.97
2022-10-03T02:03:51.951Z,1013.04
2022-10-03T02:04:51.964Z,1013.07
2022-10-03T02:05:51.981Z,1013.04
2022-10-03T02:06:51.995Z,1013.11
2022-10-03T02:07:52.009Z,1013.11
2022-10-03T02:08:52.022Z,1013.12
2022-10-03T02:09:52.038Z,1013.19
2022-10-03T02:10:52.055Z,1013.18
2022-10-03T02:11:52.068Z,1013.17
2022-10-03T02:12:52.085Z,1013.18
2022-10-03T02:13:52.098Z,1013.20
2022-10-03T02:14:52.112Z,1013.21
2022-10-03T02:15:52.184Z,1013.22
2022-10-03T02:16:52.141Z,1013.25
2022-10-03T02:17:52.156Z,1013.21
2022-10-03T02:18:52.170Z,1013.25
2022-10-03T02:19:52.186Z,1013.25
2022-10-03T02:20:52.200Z,1013.26
2022-10-03T02:21:52.217Z,1013.28
2022-10-03T02:22:52.230Z,1013.22
2022-10-03T02:23:52.245Z,1013.30
2022-10-03T02:24:52.295Z,1013.18
2022-10-03T02:25:52.274Z,1013.25
2022-10-03T02:26:52.292Z,1013.28
2022-10-03T02:27:52.359Z,1013.24
2022-10-03T02:28:52.318Z,1013.25
2022-10-03T02:29:52.334Z,1013.25
2022-10-03T02:30:52.348Z,1013.26
2022-10-03T02:31:52.402Z,1013.33
2022-10-03T02:32:52.379Z,1013.27
2022-10-03T02:33:52.392Z,1013.27
2022-10-03T02:34:52.408Z,1013.33
2022-10-03T02:35:52.423Z,1013.26
2022-10-03T02:36:52.438Z,1013.34
2022-10-03T02:37:52.453Z,1013.31
2022-10-03T02:38:52.470Z,1013.33
2022-10-03T02:39:52.483Z,1013.31
2022-10-03T02:40:52.497Z,1013.35
2022-10-03T02:41:52.512Z,1013.32
2022-10-03T02:42:52.530Z,1013.31
2022-10-03T02:43:52.551Z,1013.34
2022-10-03T02:44:52.558Z,1013.35
2022-10-03T02:45:52.597Z,1013.33
2022-10-03T02:46:52.591Z,1013.35
2022-10-03T02:47:54.413Z,1013.37
2022-10-03T02:48:52.623Z,1013.28
2022-10-03T02:49:52.637Z,1013.39
2022-10-03T02:50:52.649Z,1013.37
2022-10-03T02:51:52.663Z,1013.32
2022-10-03T02:52:52.677Z,1013.32
2022-10-03T02:53:52.693Z,1013.34
2022-10-03T02:54:52.714Z,1013.33
2022-10-03T02:55:52.725Z,1013.35
2022-10-03T02:56:52.742Z,1013.32
2022-10-03T02:57:52.753Z,1013.36
2022-10-03T02:58:52.767Z,1013.32
2022-10-03T02:59:52.784Z,1013.33
2022-10-03T03:00:52.817Z,1013.34
2022-10-03T03:01:52.885Z,1013.35
2022-10-03T03:02:52.829Z,1013.36
2022-10-03T03:03:52.847Z,1013.33
2022-10-03T03:04:52.857Z,1013.33
2022-10-03T03:05:52.877Z,1013.31
2022-10-03T03:06:52.891Z,1013.33
2022-10-03T03:07:52.915Z,1013.36
2022-10-03T03:08:52.921Z,1013.35
2022-10-03T03:09:52.937Z,1013.42
2022-10-03T03:10:52.954Z,1013.40
2022-10-03T03:11:52.965Z,1013.40
2022-10-03T03:12:52.984Z,1013.46
2022-10-03T03:13:52.998Z,1013.46
2022-10-03T03:14:53.011Z,1013.45
2022-10-03T03:15:53.027Z,1013.46
2022-10-03T03:16:53.049Z,1013.46
2022-10-03T03:17:53.057Z,1013.49
2022-10-03T03:18:53.071Z,1013.44
2022-10-03T03:19:53.091Z,1013.42
2022-10-03T03:20:53.103Z,1013.44
2022-10-03T03:21:53.117Z,1013.52
2022-10-03T03:22:53.133Z,1013.45
2022-10-03T03:23:53.149Z,1013.46
2022-10-03T03:24:53.163Z,1013.51
2022-10-03T03:25:53.183Z,1013.48
2022-10-03T03:26:53.193Z,1013.45
2022-10-03T03:27:53.257Z,1013.45
2022-10-03T03:28:55.667Z,1013.49
2022-10-03T03:29:53.239Z,1013.48
2022-10-03T03:30:53.254Z,1013.46
2022-10-03T03:31:53.303Z,1013.53
2022-10-03T03:32:53.284Z,1013.52
2022-10-03T03:33:53.304Z,1013.53
2022-10-03T03:34:53.316Z,1013.50
2022-10-03T03:35:53.329Z,1013.53
2022-10-03T03:36:53.346Z,1013.53
2022-10-03T03:37:53.359Z,1013.49
2022-10-03T03:38:53.374Z,1013.51
2022-10-03T03:39:53.389Z,1013.50
2022-10-03T03:40:53.404Z,1013.55
2022-10-03T03:41:53.421Z,1013.54
2022-10-03T03:42:53.434Z,1013.56
2022-10-03T03:43:53.449Z,1013.58
2022-10-03T03:44:53.466Z,1013.55
2022-10-03T03:45:53.516Z,1013.61
2022-10-03T03:46:53.496Z,1013.65
2022-10-03T03:47:53.511Z,1013.59
2022-10-03T03:48:53.523Z,1013.57
2022-10-03T03:49:53.540Z,1013.64
2022-10-03T03:50:53.553Z,1013.59
2022-10-03T03:51:53.569Z,1013.61
2022-10-03T03:52:53.581Z,1013.59
2022-10-03T03:53:53.597Z,1013.66
2022-10-03T03:54:53.614Z,1013.58
2022-10-03T03:55:53.629Z,1013.56
2022-10-03T03:56:53.647Z,1013.63
2022-10-03T03:57:53.658Z,1013.61
2022-10-03T03:58:53.679Z,1013.63
2022-10-03T03:59:53.688Z,1013.66
2022-10-03T04:00:53.764Z,1013.68
2022-10-03T04:01:53.751Z,1013.69
2022-10-03T04:02:53.733Z,1013.74
2022-10-03T04:03:53.748Z,1013.70
2022-10-03T04:04:53.763Z,1013.70
2022-10-03T04:05:53.780Z,1013.70
2022-10-03T04:06:53.794Z,1013.76
2022-10-03T04:07:53.808Z,1013.77
2022-10-03T04:08:53.824Z,1013.78
2022-10-03T04:09:53.839Z,1013.77
2022-10-03T04:10:53.854Z,1013.77
2022-10-03T04:11:53.868Z,1013.79
2022-10-03T04:12:53.883Z,1013.79
2022-10-03T04:13:53.897Z,1013.81
2022-10-03T04:14:53.916Z,1013.88
2022-10-03T04:15:53.928Z,1013.86
2022-10-03T04:16:53.981Z,1013.80
2022-10-03T04:17:53.959Z,1013.83
2022-10-03T04:18:53.976Z,1013.81
2022-10-03T04:19:53.990Z,1013.90
2022-10-03T04:20:54.005Z,1013.85
2022-10-03T04:21:54.021Z,1013.84
2022-10-03T04:22:54.034Z,1013.86
2022-10-03T04:23:54.050Z,1013.87
2022-10-03T04:24:54.067Z,1013.78
2022-10-03T04:25:54.078Z,1013.86
2022-10-03T04:26:54.098Z,1013.90
2022-10-03T04:27:54.123Z,1013.88
2022-10-03T04:28:54.125Z,1013.88
2022-10-03T04:29:56.724Z,1013.93
2022-10-03T04:30:54.162Z,1013.87
2022-10-03T04:31:54.238Z,1013.80
2022-10-03T04:32:54.186Z,1013.94
2022-10-03T04:33:54.199Z,1013.90
2022-10-03T04:34:54.214Z,1013.90
2022-10-03T04:35:54.232Z,1013.91
2022-10-03T04:36:54.243Z,1013.90
2022-10-03T04:37:54.259Z,1013.90
2022-10-03T04:38:54.278Z,1013.83
2022-10-03T04:39:54.294Z,1013.98
2022-10-03T04:40:54.308Z,1013.87
2022-10-03T04:41:54.321Z,1013.86
2022-10-03T04:42:54.339Z,1013.92
2022-10-03T04:43:54.350Z,1013.87
2022-10-03T04:44:54.368Z,1013.87
2022-10-03T04:45:54.451Z,1013.88
2022-10-03T04:46:54.402Z,1013.91
2022-10-03T04:47:54.417Z,1013.90
2022-10-03T04:48:54.427Z,1013.96
2022-10-03T04:49:54.446Z,1013.92
2022-10-03T04:50:54.469Z,1013.86
2022-10-03T04:51:55.636Z,1013.96
2022-10-03T04:52:54.488Z,1013.91
2022-10-03T04:53:54.520Z,1013.94
2022-10-03T04:54:54.531Z,1013.92
2022-10-03T04:55:54.544Z,1013.96
2022-10-03T04:56:54.550Z,1014.06
2022-10-03T04:57:54.562Z,1013.99
2022-10-03T04:58:54.577Z,1013.97
2022-10-03T04:59:54.595Z,1013.96
2022-10-03T05:00:54.658Z,1013.98
2022-10-03T05:01:54.673Z,1013.99
2022-10-03T05:02:54.637Z,1013.99
2022-10-03T05:03:54.653Z,1013.94
2022-10-03T05:04:55.725Z,1013.92
2022-10-03T05:05:54.686Z,1013.97
2022-10-03T05:06:54.698Z,1013.99
2022-10-03T05:07:54.714Z,1014.03
2022-10-03T05:08:54.730Z,1014.03
2022-10-03T05:09:54.743Z,1014.04
2022-10-03T05:10:54.761Z,1014.02
2022-10-03T05:11:54.774Z,1013.95
2022-10-03T05:12:54.790Z,1014.05
2022-10-03T05:13:54.805Z,1014.09
2022-10-03T05:14:54.819Z,1014.13
2022-10-03T05:15:54.835Z,1014.16
2022-10-03T05:16:54.929Z,1014.18
2022-10-03T05:17:54.865Z,1014.20
2022-10-03T05:18:54.877Z,1014.15
2022-10-03T05:19:54.895Z,1014.20
2022-10-03T05:20:54.911Z,1014.14
2022-10-03T05:21:54.926Z,1014.21
2022-10-03T05:22:54.941Z,1014.17
2022-10-03T05:23:54.958Z,1014.22
2022-10-03T05:24:54.971Z,1014.19
2022-10-03T05:25:54.984Z,1014.29
2022-10-03T05:26:55.006Z,1014.19
2022-10-03T05:27:55.070Z,1014.24
2022-10-03T05:28:55.031Z,1014.25
2022-10-03T05:29:55.044Z,1014.27
2022-10-03T05:30:55.061Z,1014.27
2022-10-03T05:31:55.112Z,1014.29
2022-10-03T05:32:55.092Z,1014.23
2022-10-03T05:33:55.105Z,1014.24
2022-10-03T05:34:55.121Z,1014.26
2022-10-03T05:35:55.137Z,1014.23
2022-10-03T05:36:55.150Z,1014.23
2022-10-03T05:37:55.166Z,1014.34
2022-10-03T05:38:55.182Z,1014.29
2022-10-03T05:39:55.195Z,1014.35
2022-10-03T05:40:55.214Z,1014.31
2022-10-03T05:42:17.815Z,1014.34
2022-10-03T05:42:55.245Z,1014.46
2022-10-03T05:43:55.256Z,1014.45
2022-10-03T05:44:55.272Z,1014.40
2022-10-03T05:45:55.328Z,1014.36
2022-10-03T05:46:55.301Z,1014.38
2022-10-03T05:47:55.317Z,1014.49
2022-10-03T05:48:55.332Z,1014.40
2022-10-03T05:49:55.346Z,1014.41
2022-10-03T05:50:55.361Z,1014.41
2022-10-03T05:51:55.381Z,1014.49
2022-10-03T05:52:55.391Z,1014.47
2022-10-03T05:53:55.406Z,1014.45
2022-10-03T05:54:55.423Z,1014.43
2022-10-03T05:55:55.439Z,1014.47
2022-10-03T05:56:55.452Z,1014.48
2022-10-03T05:57:55.469Z,1014.49
2022-10-03T05:58:55.483Z,1014.46
2022-10-03T05:59:55.499Z,1014.51
2022-10-03T06:00:55.511Z,1014.43
2022-10-03T06:01:55.619Z,1014.52
2022-10-03T06:02:55.626Z,1014.48
2022-10-03T06:03:55.559Z,1014.51
2022-10-03T06:04:55.581Z,1014.46
2022-10-03T06:05:55.588Z,1014.56
2022-10-03T06:06:55.603Z,1014.69
2022-10-03T06:07:55.623Z,1014.60
2022-10-03T06:08:55.632Z,1014.61
2022-10-03T06:09:55.651Z,1014.66
2022-10-03T06:10:55.665Z,1014.67
2022-10-03T06:11:55.678Z,1014.58
2022-10-03T06:12:55.694Z,1014.64
2022-10-03T06:13:55.713Z,1014.61
2022-10-03T06:14:55.727Z,1014.55
2022-10-03T06:15:55.788Z,1014.63
2022-10-03T06:16:55.755Z,1014.66
2022-10-03T06:17:55.771Z,1014.68
2022-10-03T06:18:55.787Z,1014.73
2022-10-03T06:19:55.803Z,1014.75
2022-10-03T06:20:55.818Z,1014.79
2022-10-03T06:21:55.833Z,1014.80
2022-10-03T06:22:55.848Z,1014.81
2022-10-03T06:23:55.863Z,1014.78
2022-10-03T06:24:55.879Z,1014.83
2022-10-03T06:25:55.892Z,1014.89
2022-10-03T06:26:55.911Z,1014.87
2022-10-03T06:27:55.963Z,1014.91
2022-10-03T06:28:55.939Z,1014.87
2022-10-03T06:29:55.955Z,1014.90
2022-10-03T06:30:56.010Z,1014.94
2022-10-03T06:31:55.987Z,1014.97
2022-10-03T06:32:56.003Z,1014.94
2022-10-03T06:33:56.028Z,1014.95
2022-10-03T06:34:56.035Z,1014.96
2022-10-03T06:35:56.051Z,1014.99
2022-10-03T06:36:56.067Z,1014.99
2022-10-03T06:37:56.085Z,1015.03
2022-10-03T06:38:56.095Z,1015.03
2022-10-03T06:39:56.114Z,1015.05
2022-10-03T06:40:56.127Z,1015.04
2022-10-03T06:41:56.145Z,1015.07
2022-10-03T06:42:56.161Z,1015.01
2022-10-03T06:43:56.232Z,1014.99
2022-10-03T06:44:56.191Z,1014.99
2022-10-03T06:45:56.253Z,1015.03
2022-10-03T06:46:56.224Z,1015.07
2022-10-03T06:47:56.240Z,1015.10
2022-10-03T06:48:56.255Z,1015.02
2022-10-03T06:49:56.273Z,1015.07
2022-10-03T06:50:56.286Z,1015.08
2022-10-03T06:51:56.306Z,1015.07
2022-10-03T06:52:56.319Z,1015.07
2022-10-03T06:53:56.340Z,1015.16
2022-10-03T06:54:56.351Z,1015.09
2022-10-03T06:55:56.375Z,1015.16
2022-10-03T06:56:56.395Z,1015.12
2022-10-03T06:57:56.397Z,1015.16
2022-10-03T06:58:56.418Z,1015.10
2022-10-03T06:59:56.437Z,1015.10
2022-10-03T07:00:56.516Z,1015.08
2022-10-03T07:01:56.545Z,1015.10
2022-10-03T07:02:56.542Z,1015.18
2022-10-03T07:03:56.493Z,1015.11
2022-10-03T07:04:56.513Z,1015.10
2022-10-03T07:05:56.529Z,1015.12
2022-10-03T07:06:56.545Z,1015.07
2022-10-03T07:07:56.560Z,1015.07
2022-10-03T07:08:56.577Z,1015.17
2022-10-03T07:09:56.596Z,1015.13
2022-10-03T07:10:56.609Z,1015.07
2022-10-03T07:11:56.625Z,1015.14
2022-10-03T07:12:56.641Z,1015.16
2022-10-03T07:13:56.679Z,1015.19
2022-10-03T07:14:56.675Z,1015.26
2022-10-03T07:16:25.034Z,1015.21
2022-10-03T07:16:56.778Z,1015.13
2022-10-03T07:17:56.723Z,1015.21
2022-10-03T07:18:56.741Z,1015.20
2022-10-03T07:19:56.755Z,1015.35
2022-10-03T07:20:56.772Z,1015.33
2022-10-03T07:21:56.790Z,1015.36
2022-10-03T07:22:56.805Z,1015.33
2022-10-03T07:23:56.823Z,1015.37
2022-10-03T07:24:56.840Z,1015.32
2022-10-03T07:25:56.858Z,1015.34
2022-10-03T07:26:56.872Z,1015.41
2022-10-03T07:27:56.918Z,1015.35
2022-10-03T07:28:56.925Z,1015.39
2022-10-03T07:29:56.924Z,1015.46
2022-10-03T07:30:56.976Z,1015.42
2022-10-03T07:31:56.957Z,1015.46
2022-10-03T07:32:56.974Z,1015.50
2022-10-03T07:33:56.991Z,1015.46
2022-10-03T07:34:57.008Z,1015.50
2022-10-03T07:35:57.025Z,1015.41
2022-10-03T07:36:57.042Z,1015.43
2022-10-03T07:37:57.060Z,1015.47
2022-10-03T07:38:57.075Z,1015.50
2022-10-03T07:39:57.093Z,1015.55
2022-10-03T07:40:57.112Z,1015.52
2022-10-03T07:41:57.125Z,1015.40
2022-10-03T07:42:57.142Z,1015.47
2022-10-03T07:43:57.159Z,1015.42
2022-10-03T07:44:57.178Z,1015.45
2022-10-03T07:45:57.235Z,1015.60
2022-10-03T07:46:57.210Z,1015.53
2022-10-03T07:47:57.228Z,1015.62
2022-10-03T07:48:57.243Z,1015.62
2022-10-03T07:49:57.265Z,1015.56
2022-10-03T07:50:57.280Z,1015.58
2022-10-03T07:51:57.295Z,1015.66
2022-10-03T07:52:57.319Z,1015.71
2022-10-03T07:53:57.333Z,1015.70
2022-10-03T07:54:57.346Z,1015.67
2022-10-03T07:55:57.367Z,1015.69
2022-10-03T07:56:57.381Z,1015.67
2022-10-03T07:57:57.399Z,1015.76
2022-10-03T07:58:57.418Z,1015.79
2022-10-03T07:59:57.433Z,1015.75
2022-10-03T08:00:57.448Z,1015.72
2022-10-03T08:01:57.467Z,1015.73
2022-10-03T08:02:57.533Z,1015.79
2022-10-03T08:03:57.574Z,1015.83
2022-10-03T08:04:57.519Z,1015.78
2022-10-03T08:05:57.536Z,1015.80
2022-10-03T08:06:57.553Z,1015.82
2022-10-03T08:07:57.575Z,1015.90
2022-10-03T08:08:57.591Z,1015.87
2022-10-03T08:09:57.604Z,1015.85
2022-10-03T08:10:57.623Z,1015.90
2022-10-03T08:11:57.640Z,1015.97
2022-10-03T08:12:57.659Z,1015.92
2022-10-03T08:13:57.676Z,1015.93
2022-10-03T08:14:57.698Z,1015.92
2022-10-03T08:15:57.758Z,1015.93
2022-10-03T08:16:57.728Z,1015.88
2022-10-03T08:17:57.747Z,1016.01
2022-10-03T08:18:57.762Z,1015.92
2022-10-03T08:19:57.778Z,1016.00
2022-10-03T08:20:57.797Z,1016.03
2022-10-03T08:21:57.814Z,1015.99
2022-10-03T08:22:57.836Z,1016.02
2022-10-03T08:23:57.849Z,1016.07
2022-10-03T08:25:01.967Z,1016.07
2022-10-03T08:25:57.886Z,1015.98
2022-10-03T08:26:57.904Z,1016.02
2022-10-03T08:27:57.958Z,1015.97
2022-10-03T08:28:57.938Z,1016.00
2022-10-03T08:29:57.953Z,1016.05
2022-10-03T08:30:58.040Z,1016.09
2022-10-03T08:31:57.990Z,1016.12
2022-10-03T08:32:58.009Z,1016.09
2022-10-03T08:33:58.027Z,1016.06
2022-10-03T08:34:58.042Z,1016.02
2022-10-03T08:35:58.063Z,1016.17
2022-10-03T08:36:58.081Z,1016.20
2022-10-03T08:37:58.100Z,1016.12
2022-10-03T08:38:58.119Z,1016.15
2022-10-03T08:39:58.134Z,1016.16
2022-10-03T08:40:58.152Z,1016.18
2022-10-03T08:41:58.175Z,1016.12
2022-10-03T08:42:58.189Z,1016.15
2022-10-03T08:43:58.209Z,1016.12
2022-10-03T08:44:58.227Z,1016.14
2022-10-03T08:45:58.332Z,1016.20
2022-10-03T08:46:58.385Z,1016.22
2022-10-03T08:47:58.281Z,1016.14
2022-10-03T08:48:58.307Z,1016.05
2022-10-03T08:50:00.700Z,1016.12
2022-10-03T08:50:58.335Z,1016.11
2022-10-03T08:51:58.357Z,1016.11
2022-10-03T08:52:58.377Z,1016.09
2022-10-03T08:53:58.389Z,1016.08
2022-10-03T08:54:58.410Z,1016.14
2022-10-03T08:55:58.430Z,1016.11
2022-10-03T08:56:58.446Z,1016.14
2022-10-03T08:57:58.465Z,1016.16
2022-10-03T08:58:58.482Z,1016.27
2022-10-03T08:59:58.506Z,1016.21
2022-10-03T09:00:58.518Z,1016.15
2022-10-03T09:01:58.642Z,1016.16
2022-10-03T09:03:31.468Z,1016.13
2022-10-03T09:03:58.629Z,1016.20
2022-10-03T09:04:58.593Z,1016.26
2022-10-03T09:05:58.611Z,1016.29
2022-10-03T09:07:16.451Z,1016.21
2022-10-03T09:07:58.648Z,1016.28
2022-10-03T09:08:58.665Z,1016.22
2022-10-03T09:09:58.685Z,1016.20
2022-10-03T09:10:58.702Z,1016.37
2022-10-03T09:11:58.720Z,1016.29
2022-10-03T09:12:58.738Z,1016.26
2022-10-03T09:13:58.759Z,1016.22
2022-10-03T09:14:58.776Z,1016.20
2022-10-03T09:15:58.819Z,1016.28
2022-10-03T09:16:58.813Z,1016.22
2022-10-03T09:17:58.831Z,1016.23
2022-10-03T09:18:58.851Z,1016.34
2022-10-03T09:19:58.868Z,1016.21
2022-10-03T09:20:58.887Z,1016.22
2022-10-03T09:21:58.905Z,1016.22
2022-10-03T09:22:58.923Z,1016.24
2022-10-03T09:23:58.943Z,1016.21
2022-10-03T09:24:58.959Z,1016.16
2022-10-03T09:25:58.978Z,1016.22
2022-10-03T09:26:58.998Z,1016.19
2022-10-03T09:27:59.046Z,1016.16
2022-10-03T09:28:59.035Z,1016.21
2022-10-03T09:29:59.053Z,1016.28
2022-10-03T09:30:59.115Z,1016.29
2022-10-03T09:31:59.091Z,1016.36
2022-10-03T09:32:59.110Z,1016.29
2022-10-03T09:33:59.128Z,1016.30
2022-10-03T09:35:00.309Z,1016.26
2022-10-03T09:35:59.168Z,1016.26
2022-10-03T09:36:59.185Z,1016.26
2022-10-03T09:37:59.204Z,1016.28
2022-10-03T09:38:59.225Z,1016.16
2022-10-03T09:39:59.247Z,1016.24
2022-10-03T09:40:59.261Z,1016.20
2022-10-03T09:41:59.280Z,1016.24
2022-10-03T09:42:59.300Z,1016.27
2022-10-03T09:43:59.318Z,1016.26
2022-10-03T09:44:59.339Z,1016.29
2022-10-03T09:45:59.357Z,1016.22
2022-10-03T09:46:59.403Z,1016.15
2022-10-03T09:47:59.395Z,1016.14
2022-10-03T09:48:59.416Z,1016.21
2022-10-03T09:49:59.435Z,1016.33
2022-10-03T09:50:59.454Z,1016.37
2022-10-03T09:51:59.472Z,1016.34
2022-10-03T09:52:59.494Z,1016.25
2022-10-03T09:53:59.510Z,1016.35
2022-10-03T09:54:59.533Z,1016.41
2022-10-03T09:55:59.549Z,1016.40
2022-10-03T09:56:59.567Z,1016.39
2022-10-03T09:57:59.587Z,1016.39
2022-10-03T09:58:59.608Z,1016.38
2022-10-03T09:59:59.625Z,1016.45
2022-10-03T10:00:59.687Z,1016.41
2022-10-03T10:01:59.664Z,1016.40
2022-10-03T10:02:59.683Z,1016.33
2022-10-03T10:03:59.727Z,1016.30
2022-10-03T10:04:59.776Z,1016.40
2022-10-03T10:05:59.742Z,1016.41
2022-10-03T10:06:59.761Z,1016.42
2022-10-03T10:07:59.778Z,1016.36
2022-10-03T10:08:59.801Z,1016.32
2022-10-03T10:09:59.819Z,1016.35
2022-10-03T10:10:59.838Z,1016.40
2022-10-03T10:11:59.858Z,1016.39
2022-10-03T10:12:59.877Z,1016.45
2022-10-03T10:14:08.257Z,1016.44
2022-10-03T10:14:59.915Z,1016.28
2022-10-03T10:15:59.980Z,1016.37
2022-10-03T10:16:59.954Z,1016.34
2022-10-03T10:17:59.974Z,1016.23
2022-10-03T10:18:59.992Z,1016.26
2022-10-03T10:20:00.012Z,1016.29
2022-10-03T10:21:00.028Z,1016.29
2022-10-03T10:22:00.050Z,1016.34
2022-10-03T10:23:00.070Z,1016.31
2022-10-03T10:24:00.099Z,1016.21
2022-10-03T10:25:00.119Z,1016.37
2022-10-03T10:26:00.127Z,1016.29
2022-10-03T10:27:00.146Z,1016.25
2022-10-03T10:28:00.327Z,1016.27
2022-10-03T10:29:00.186Z,1016.22
2022-10-03T10:30:00.206Z,1016.27
2022-10-03T10:31:00.274Z,1016.22
2022-10-03T10:32:00.253Z,1016.26
2022-10-03T10:33:00.266Z,1016.23
2022-10-03T10:34:00.291Z,1016.31
2022-10-03T10:35:00.316Z,1016.18
2022-10-03T10:36:00.332Z,1016.14
2022-10-03T10:37:00.342Z,1016.09
2022-10-03T10:38:00.358Z,1016.08
2022-10-03T10:39:00.379Z,1016.17
2022-10-03T10:40:00.398Z,1016.16
2022-10-03T10:41:03.583Z,1016.11
2022-10-03T10:42:00.436Z,1016.17
2022-10-03T10:43:00.456Z,1016.05
2022-10-03T10:44:00.475Z,1016.11
2022-10-03T10:45:00.498Z,1016.11
2022-10-03T10:46:00.525Z,1016.16
2022-10-03T10:47:00.570Z,1016.25
2022-10-03T10:48:00.556Z,1016.25
2022-10-03T10:49:03.796Z,1016.18
2022-10-03T10:50:00.597Z,1016.24
2022-10-03T10:51:00.614Z,1016.23
2022-10-03T10:52:00.644Z,1016.28
2022-10-03T10:53:00.655Z,1016.28
2022-10-03T10:54:00.684Z,1016.22
2022-10-03T10:55:00.689Z,1016.25
2022-10-03T10:56:00.709Z,1016.24
2022-10-03T10:57:00.726Z,1016.28
2022-10-03T10:58:00.747Z,1016.31
2022-10-03T10:59:00.768Z,1016.23
2022-10-03T11:00:00.792Z,1016.28
2022-10-03T11:01:00.859Z,1016.31
2022-10-03T11:02:00.829Z,1016.30
2022-10-03T11:03:00.849Z,1016.29
2022-10-03T11:04:00.870Z,1016.31
2022-10-03T11:05:00.954Z,1016.40
2022-10-03T11:06:00.911Z,1016.42
2022-10-03T11:07:00.930Z,1016.34
2022-10-03T11:08:00.950Z,1016.40
2022-10-03T11:09:00.972Z,1016.31
2022-10-03T11:10:00.999Z,1016.30
2022-10-03T11:11:01.012Z,1016.21
2022-10-03T11:12:01.035Z,1016.37
2022-10-03T11:13:01.052Z,1016.30
2022-10-03T11:14:01.079Z,1016.32
2022-10-03T11:15:01.093Z,1016.28
2022-10-03T11:16:01.156Z,1016.33
2022-10-03T11:17:01.134Z,1016.35
2022-10-03T11:18:01.154Z,1016.33
2022-10-03T11:19:01.176Z,1016.32
2022-10-03T11:20:01.195Z,1016.31
2022-10-03T11:21:01.214Z,1016.34
2022-10-03T11:22:01.236Z,1016.31
2022-10-03T11:23:04.576Z,1016.45
2022-10-03T11:24:01.277Z,1016.36
2022-10-03T11:25:01.296Z,1016.44
2022-10-03T11:26:01.317Z,1016.45
2022-10-03T11:27:01.335Z,1016.43
2022-10-03T11:28:01.389Z,1016.44
2022-10-03T11:29:01.379Z,1016.43
2022-10-03T11:30:01.397Z,1016.43
2022-10-03T11:31:01.472Z,1016.48
2022-10-03T11:32:01.438Z,1016.51
2022-10-03T11:33:01.461Z,1016.41
2022-10-03T11:34:01.477Z,1016.49
2022-10-03T11:35:01.499Z,1016.52
2022-10-03T11:36:01.518Z,1016.48
2022-10-03T11:37:01.540Z,1016.49
2022-10-03T11:38:01.566Z,1016.47
2022-10-03T11:39:01.581Z,1016.49
2022-10-03T11:40:01.605Z,1016.43
2022-10-03T11:41:01.620Z,1016.50
2022-10-03T11:42:01.641Z,1016.45
2022-10-03T11:43:01.666Z,1016.47
2022-10-03T11:44:02.053Z,1016.44
2022-10-03T11:45:01.704Z,1016.47
2022-10-03T11:46:01.766Z,1016.41
2022-10-03T11:47:01.744Z,1016.44
2022-10-03T11:48:01.761Z,1016.50
2022-10-03T11:49:01.781Z,1016.47
2022-10-03T11:50:01.803Z,1016.45
2022-10-03T11:51:01.826Z,1016.52
2022-10-03T11:52:01.842Z,1016.48
2022-10-03T11:53:01.862Z,1016.50
2022-10-03T11:54:26.204Z,1016.54
2022-10-03T11:55:01.900Z,1016.57
2022-10-03T11:56:01.920Z,1016.51
2022-10-03T11:57:01.939Z,1016.42
2022-10-03T11:58:01.958Z,1016.42
2022-10-03T11:59:01.978Z,1016.41
2022-10-03T12:00:02.009Z,1016.40
2022-10-03T12:01:02.017Z,1016.44
2022-10-03T12:02:02.069Z,1016.34
2022-10-03T12:03:02.130Z,1016.32
2022-10-03T12:04:02.082Z,1016.26
2022-10-03T12:05:02.100Z,1016.27
2022-10-03T12:06:02.117Z,1016.26